createdAt,value
2017-11-11T00:00:40.846Z,100514.09
2017-11-11T00:03:08.552Z,100511.34
2017-11-11T00:05:36.280Z,100504.75
2017-11-11T00:08:03.984Z,100497.30
2017-11-11T00:10:31.725Z,100511.47
2017-11-11T00:12:59.362Z,100502.80
2017-11-11T00:15:27.098Z,100490.42
2017-11-11T00:17:54.810Z,100499.80
2017-11-11T00:20:22.529Z,100504.75
2017-11-11T00:22:50.188Z,100495.25
2017-11-11T00:25:17.917Z,100499.09
2017-11-11T00:27:45.550Z,100481.78
2017-11-11T00:30:13.246Z,100492.78
2017-11-11T00:32:40.888Z,100485.86
2017-11-11T00:35:08.581Z,100491.22
2017-11-11T00:37:36.320Z,100490.65
2017-11-11T00:40:04.062Z,100490.05
2017-11-11T00:42:31.811Z,100490.45
2017-11-11T00:44:59.519Z,100478.88
2017-11-11T00:47:27.180Z,100494.81
2017-11-11T00:49:54.825Z,100502.03
2017-11-11T00:52:22.562Z,100501.03
2017-11-11T00:54:50.259Z,100489.95
2017-11-11T00:57:17.966Z,100486.61
2017-11-11T00:59:45.668Z,100481.09
2017-11-11T01:02:13.398Z,100485.39
2017-11-11T01:04:41.157Z,100481.69
2017-11-11T01:07:08.818Z,100483.77
2017-11-11T01:09:36.466Z,100489.09
2017-11-11T01:12:04.210Z,100477.22
2017-11-11T01:14:31.927Z,100475.97
2017-11-11T01:16:59.589Z,100475.82
2017-11-11T01:19:27.330Z,100475.98
2017-11-11T01:21:55.021Z,100476.80
2017-11-11T01:24:22.790Z,100474.77
2017-11-11T01:26:50.493Z,100475.62
2017-11-11T01:29:18.129Z,100455.30
2017-11-11T01:31:45.776Z,100459.17
2017-11-11T01:34:13.481Z,100462.48
2017-11-11T01:36:41.164Z,100463.46
2017-11-11T01:39:08.892Z,100466.80
2017-11-11T01:41:36.616Z,100465.79
2017-11-11T01:44:04.344Z,100478.86
2017-11-11T01:46:32.061Z,100476.22
2017-11-11T01:48:59.822Z,100477.05
2017-11-11T01:51:27.535Z,100475.13
2017-11-11T01:53:55.196Z,100467.50
2017-11-11T01:56:22.944Z,100462.69
2017-11-11T01:58:50.702Z,100462.25
2017-11-11T02:01:18.420Z,100463.44
2017-11-11T02:03:46.162Z,100467.42
2017-11-11T02:06:13.852Z,100464.22
2017-11-11T02:08:41.502Z,100465.70
2017-11-11T02:11:09.202Z,100461.28
2017-11-11T02:13:36.896Z,100462.47
2017-11-11T02:16:04.628Z,100459.87
2017-11-11T02:18:32.409Z,100449.52
2017-11-11T02:21:00.197Z,100452.16
2017-11-11T02:23:27.900Z,100442.66
2017-11-11T02:25:55.557Z,100442.83
2017-11-11T02:28:23.269Z,100446.87
2017-11-11T02:30:51.027Z,100444.88
2017-11-11T02:33:18.681Z,100443.66
2017-11-11T02:35:46.404Z,100448.24
2017-11-11T02:38:14.095Z,100446.21
2017-11-11T02:40:41.882Z,100445.66
2017-11-11T02:43:09.596Z,100445.78
2017-11-11T02:45:37.359Z,100439.42
2017-11-11T02:48:05.090Z,100431.28
2017-11-11T02:50:32.784Z,100436.11
2017-11-11T02:53:00.478Z,100442.38
2017-11-11T02:55:28.206Z,100425.97
2017-11-11T02:57:55.953Z,100429.14
2017-11-11T03:00:23.683Z,100427.19
2017-11-11T03:02:51.404Z,100420.47
2017-11-11T03:05:19.153Z,100417.88
2017-11-11T03:07:50.922Z,100424.23
2017-11-11T03:10:18.621Z,100414.89
2017-11-11T03:12:46.348Z,100412.27
2017-11-11T03:15:14.052Z,100423.84
2017-11-11T03:17:41.756Z,100412.81
2017-11-11T03:20:09.464Z,100413.34
2017-11-11T03:22:37.171Z,100413.33
2017-11-11T03:25:04.833Z,100415.41
2017-11-11T03:27:32.564Z,100416.23
2017-11-11T03:30:00.273Z,100411.09
2017-11-11T03:32:27.977Z,100412.64
2017-11-11T03:34:55.687Z,100407.52
2017-11-11T03:37:23.313Z,100405.98
2017-11-11T03:39:51.009Z,100397.70
2017-11-11T03:42:18.749Z,100393.98
2017-11-11T03:44:46.501Z,100399.62
2017-11-11T03:47:14.198Z,100407.63
2017-11-11T03:49:41.934Z,100393.13
2017-11-11T03:52:09.654Z,100397.11
2017-11-11T03:54:37.312Z,100386.36
2017-11-11T03:57:04.968Z,100399.56
2017-11-11T03:59:32.714Z,100400.39
2017-11-11T04:02:00.463Z,100406.85
2017-11-11T04:04:28.165Z,100405.88
2017-11-11T04:06:55.863Z,100406.70
2017-11-11T04:09:23.580Z,100409.70
2017-11-11T04:11:51.235Z,100413.84
2017-11-11T04:14:18.976Z,100412.20
2017-11-11T04:16:46.625Z,100412.17
2017-11-11T04:19:14.340Z,100420.02
2017-11-11T04:21:42.072Z,100416.28
2017-11-11T04:24:09.718Z,100424.66
2017-11-11T04:26:37.512Z,100427.95
2017-11-11T04:29:05.214Z,100424.92
2017-11-11T04:31:33.007Z,100427.53
2017-11-11T04:34:00.664Z,100418.20
2017-11-11T04:36:28.431Z,100425.39
2017-11-11T04:38:56.159Z,100423.73
2017-11-11T04:41:23.879Z,100418.23
2017-11-11T04:43:51.528Z,100410.10
2017-11-11T04:46:19.234Z,100416.99
2017-11-11T04:48:48.077Z,100410.27
2017-11-11T04:51:15.804Z,100409.59
2017-11-11T04:53:43.440Z,100405.77
2017-11-11T04:56:11.139Z,100402.75
2017-11-11T04:58:38.873Z,100391.05
2017-11-11T05:01:06.575Z,100394.22
2017-11-11T05:03:34.325Z,100393.09
2017-11-11T05:06:01.948Z,100390.17
2017-11-11T05:08:29.705Z,100404.49
2017-11-11T05:10:57.367Z,100389.74
2017-11-11T05:13:25.061Z,100396.20
2017-11-11T05:15:52.815Z,100388.74
2017-11-11T05:18:20.546Z,100391.61
2017-11-11T05:20:48.243Z,100389.55
2017-11-11T05:23:15.960Z,100388.86
2017-11-11T05:25:43.706Z,100379.11
2017-11-11T05:28:11.431Z,100370.46
2017-11-11T05:30:39.151Z,100363.91
2017-11-11T05:33:06.888Z,100359.66
2017-11-11T05:35:34.600Z,100368.95
2017-11-11T05:38:02.368Z,100370.20
2017-11-11T05:40:30.120Z,100375.31
2017-11-11T05:42:57.845Z,100367.11
2017-11-11T05:45:25.594Z,100372.64
2017-11-11T05:47:53.313Z,100374.83
2017-11-11T05:50:21.017Z,100384.34
2017-11-11T05:52:48.730Z,100376.21
2017-11-11T05:55:16.438Z,100373.09
2017-11-11T05:57:44.145Z,100366.88
2017-11-11T06:00:11.870Z,100368.27
2017-11-11T06:02:39.562Z,100369.80
2017-11-11T06:05:07.317Z,100361.19
2017-11-11T06:07:35.031Z,100372.22
2017-11-11T06:10:02.673Z,100383.93
2017-11-11T06:12:30.390Z,100388.34
2017-11-11T06:14:58.177Z,100385.14
2017-11-11T06:17:25.892Z,100381.09
2017-11-11T06:19:53.600Z,100377.73
2017-11-11T06:22:21.352Z,100381.23
2017-11-11T06:24:49.060Z,100387.83
2017-11-11T06:27:16.734Z,100394.29
2017-11-11T06:29:44.492Z,100394.10
2017-11-11T06:32:12.177Z,100396.98
2017-11-11T06:34:39.892Z,100391.05
2017-11-11T06:37:07.660Z,100399.30
2017-11-11T06:39:35.398Z,100394.03
2017-11-11T06:42:03.128Z,100385.91
2017-11-11T06:44:30.820Z,100379.85
2017-11-11T06:46:58.522Z,100375.38
2017-11-11T06:49:26.247Z,100371.94
2017-11-11T06:51:53.965Z,100376.92
2017-11-11T06:54:21.679Z,100377.88
2017-11-11T06:56:49.378Z,100382.83
2017-11-11T06:59:17.162Z,100378.12
2017-11-11T07:01:44.887Z,100379.05
2017-11-11T07:04:12.664Z,100386.04
2017-11-11T07:06:40.388Z,100385.30
2017-11-11T07:09:08.042Z,100384.44
2017-11-11T07:11:35.708Z,100388.83
2017-11-11T07:14:03.428Z,100379.03
2017-11-11T07:16:31.072Z,100378.73
2017-11-11T07:18:58.724Z,100369.35
2017-11-11T07:21:26.369Z,100371.81
2017-11-11T07:23:54.034Z,100364.48
2017-11-11T07:26:21.689Z,100372.05
2017-11-11T07:28:49.384Z,100367.14
2017-11-11T07:31:17.045Z,100364.89
2017-11-11T07:33:44.708Z,100375.48
2017-11-11T07:36:12.440Z,100378.09
2017-11-11T07:38:40.097Z,100383.03
2017-11-11T07:41:07.745Z,100372.66
2017-11-11T07:43:35.389Z,100378.59
2017-11-11T07:46:03.065Z,100379.86
2017-11-11T07:48:30.814Z,100373.67
2017-11-11T07:50:58.509Z,100371.21
2017-11-11T07:53:26.159Z,100365.72
2017-11-11T07:55:54.585Z,100367.02
2017-11-11T07:58:22.224Z,100354.87
2017-11-11T08:00:49.878Z,100362.05
2017-11-11T08:03:17.516Z,100351.09
2017-11-11T08:05:45.210Z,100350.24
2017-11-11T08:08:12.864Z,100346.47
2017-11-11T08:10:40.642Z,100346.01
2017-11-11T08:13:08.299Z,100342.67
2017-11-11T08:15:35.981Z,100342.80
2017-11-11T08:18:03.657Z,100333.87
2017-11-11T08:20:31.322Z,100333.76
2017-11-11T08:22:58.992Z,100334.42
2017-11-11T08:25:26.654Z,100327.05
2017-11-11T08:27:54.312Z,100330.14
2017-11-11T08:30:21.967Z,100324.81
2017-11-11T08:32:49.768Z,100326.97
2017-11-11T08:35:17.522Z,100321.41
2017-11-11T08:37:45.205Z,100327.43
2017-11-11T08:40:12.938Z,100318.29
2017-11-11T08:42:40.589Z,100323.67
2017-11-11T08:45:08.281Z,100326.54
2017-11-11T08:47:35.942Z,100322.81
2017-11-11T08:50:03.594Z,100323.78
2017-11-11T08:52:31.232Z,100319.50
2017-11-11T08:54:58.894Z,100319.33
2017-11-11T08:57:26.575Z,100314.44
2017-11-11T08:59:54.276Z,100317.03
2017-11-11T09:02:22.007Z,100318.93
2017-11-11T09:04:49.615Z,100318.63
2017-11-11T09:07:17.332Z,100319.25
2017-11-11T09:09:45.018Z,100313.62
2017-11-11T09:12:12.664Z,100312.56
2017-11-11T09:14:40.401Z,100314.01
2017-11-11T09:17:08.127Z,100308.69
2017-11-11T09:19:35.781Z,100303.30
2017-11-11T09:22:03.508Z,100307.70
2017-11-11T09:24:31.157Z,100300.26
2017-11-11T09:26:58.807Z,100293.03
2017-11-11T09:29:26.506Z,100299.91
2017-11-11T09:31:54.237Z,100300.26
2017-11-11T09:34:22.228Z,100305.59
2017-11-11T09:36:49.957Z,100294.16
2017-11-11T09:39:17.637Z,100302.91
2017-11-11T09:41:46.225Z,100303.40
2017-11-11T09:44:13.982Z,100299.29
2017-11-11T09:46:41.702Z,100297.25
2017-11-11T09:49:09.435Z,100308.89
2017-11-11T09:51:37.216Z,100298.91
2017-11-11T09:54:04.953Z,100306.34
2017-11-11T09:56:32.586Z,100304.27
2017-11-11T09:59:00.414Z,100311.66
2017-11-11T10:01:28.272Z,100301.13
2017-11-11T10:03:56.011Z,100289.52
2017-11-11T10:06:23.664Z,100283.06
2017-11-11T10:08:51.343Z,100282.20
2017-11-11T10:11:19.009Z,100287.56
2017-11-11T10:13:46.709Z,100281.03
2017-11-11T10:16:14.468Z,100281.83
2017-11-11T10:18:42.191Z,100267.53
2017-11-11T10:21:10.819Z,100270.20
2017-11-11T10:23:38.553Z,100265.98
2017-11-11T10:26:06.294Z,100263.73
2017-11-11T10:28:34.070Z,100262.09
2017-11-11T10:31:01.834Z,100261.33
2017-11-11T10:33:29.981Z,100255.45
2017-11-11T10:35:57.788Z,100248.89
2017-11-11T10:38:25.486Z,100254.39
2017-11-11T10:40:53.228Z,100251.65
2017-11-11T10:43:21.040Z,100250.67
2017-11-11T10:45:48.842Z,100245.78
2017-11-11T10:48:18.748Z,100242.02
2017-11-11T10:50:46.506Z,100233.99
2017-11-11T10:53:14.156Z,100233.44
2017-11-11T10:55:41.929Z,100225.42
2017-11-11T10:58:09.700Z,100232.70
2017-11-11T11:00:37.386Z,100226.06
2017-11-11T11:03:05.186Z,100230.08
2017-11-11T11:05:32.868Z,100226.58
2017-11-11T11:08:00.621Z,100220.64
2017-11-11T11:10:28.343Z,100220.83
2017-11-11T11:12:56.477Z,100214.94
2017-11-11T11:15:24.151Z,100213.87
2017-11-11T11:17:51.908Z,100207.55
2017-11-11T11:20:19.608Z,100199.71
2017-11-11T11:22:47.352Z,100199.95
2017-11-11T11:25:15.086Z,100201.65
2017-11-11T11:27:42.850Z,100198.69
2017-11-11T11:30:10.634Z,100193.11
2017-11-11T11:32:38.347Z,100199.10
2017-11-11T11:35:06.098Z,100184.89
2017-11-11T11:37:33.841Z,100182.63
2017-11-11T11:40:01.613Z,100186.13
2017-11-11T11:42:29.427Z,100186.63
2017-11-11T11:44:57.132Z,100186.80
2017-11-11T11:47:24.852Z,100183.96
2017-11-11T11:49:52.625Z,100181.09
2017-11-11T11:52:20.272Z,100171.19
2017-11-11T11:54:48.041Z,100172.80
2017-11-11T11:57:15.685Z,100164.75
2017-11-11T11:59:43.482Z,100168.64
2017-11-11T12:02:11.218Z,100156.47
2017-11-11T12:04:39.047Z,100158.98
2017-11-11T12:07:06.762Z,100149.58
2017-11-11T12:09:34.515Z,100139.77
2017-11-11T12:12:02.225Z,100143.66
2017-11-11T12:14:29.946Z,100136.70
2017-11-11T12:16:57.762Z,100125.00
2017-11-11T12:19:25.555Z,100132.80
2017-11-11T12:21:53.183Z,100136.02
2017-11-11T12:24:20.942Z,100136.13
2017-11-11T12:26:48.681Z,100136.82
2017-11-11T12:29:16.405Z,100134.01
2017-11-11T12:31:44.190Z,100124.28
2017-11-11T12:34:11.944Z,100122.36
2017-11-11T12:36:40.078Z,100125.72
2017-11-11T12:39:08.342Z,100110.22
2017-11-11T12:41:36.303Z,100114.13
2017-11-11T12:44:04.177Z,100100.09
2017-11-11T12:46:31.984Z,100100.09
2017-11-11T12:49:00.849Z,100101.66
2017-11-11T12:51:28.889Z,100098.67
2017-11-11T12:53:56.770Z,100099.42
2017-11-11T12:56:24.573Z,100100.77
2017-11-11T12:58:52.644Z,100103.76
2017-11-11T13:01:20.670Z,100099.06
2017-11-11T13:03:48.476Z,100095.63
2017-11-11T13:06:16.321Z,100095.98
2017-11-11T13:08:44.396Z,100090.91
2017-11-11T13:11:12.945Z,100088.70
2017-11-11T13:13:40.879Z,100094.08
2017-11-11T13:16:08.591Z,100090.70
2017-11-11T13:18:36.749Z,100089.94
2017-11-11T13:21:04.674Z,100081.08
2017-11-11T13:23:32.519Z,100088.50
2017-11-11T13:26:00.713Z,100083.70
2017-11-11T13:28:29.533Z,100087.30
2017-11-11T13:30:57.624Z,100079.69
2017-11-11T13:33:25.775Z,100066.73
2017-11-11T13:35:53.724Z,100075.31
2017-11-11T13:38:21.635Z,100075.19
2017-11-11T13:40:50.524Z,100079.00
2017-11-11T13:43:19.716Z,100075.59
2017-11-11T13:45:48.037Z,100068.45
2017-11-11T13:48:16.157Z,100080.18
2017-11-11T13:50:43.877Z,100081.16
2017-11-11T13:53:11.837Z,100081.63
2017-11-11T13:55:40.207Z,100085.83
2017-11-11T13:58:08.841Z,100085.09
2017-11-11T14:00:37.009Z,100085.94
2017-11-11T14:03:04.774Z,100080.47
2017-11-11T14:05:32.885Z,100091.17
2017-11-11T14:08:00.750Z,100100.35
2017-11-11T14:10:28.953Z,100105.09
2017-11-11T14:12:57.149Z,100108.47
2017-11-11T14:15:27.281Z,100096.33
2017-11-11T14:17:55.671Z,100100.84
2017-11-11T14:20:23.961Z,100120.38
2017-11-11T14:22:51.818Z,100105.50
2017-11-11T14:25:19.876Z,100108.36
2017-11-11T14:27:48.101Z,100105.37
2017-11-11T14:30:16.419Z,100097.14
2017-11-11T14:32:44.199Z,100103.73
2017-11-11T14:35:12.286Z,100112.11
2017-11-11T14:37:40.371Z,100102.80
2017-11-11T14:40:08.737Z,100100.06
2017-11-11T14:42:36.774Z,100106.41
2017-11-11T14:45:04.507Z,100104.89
2017-11-11T14:47:32.380Z,100097.55
2017-11-11T14:50:00.498Z,100107.79
2017-11-11T14:52:28.776Z,100106.52
2017-11-11T14:54:58.470Z,100103.86
2017-11-11T14:57:26.436Z,100109.80
2017-11-11T14:59:54.630Z,100097.66
2017-11-11T15:02:22.531Z,100086.97
2017-11-11T15:04:50.279Z,100075.77
2017-11-11T15:07:18.157Z,100082.32
2017-11-11T15:09:45.943Z,100077.97
2017-11-11T15:12:13.766Z,100075.28
2017-11-11T15:14:41.787Z,100077.34
2017-11-11T15:17:10.638Z,100077.34
2017-11-11T15:19:38.360Z,100073.20
2017-11-11T15:22:06.082Z,100062.87
2017-11-11T15:24:33.897Z,100066.04
2017-11-11T15:27:01.572Z,100065.52
2017-11-11T15:29:30.396Z,100061.94
2017-11-11T15:31:58.189Z,100070.42
2017-11-11T15:34:26.564Z,100066.22
2017-11-11T15:36:55.193Z,100071.05
2017-11-11T15:39:23.888Z,100072.49
2017-11-11T15:41:52.917Z,100074.59
2017-11-11T15:44:20.693Z,100080.97
2017-11-11T15:46:48.614Z,100085.00
2017-11-11T15:49:16.662Z,100076.94
2017-11-11T15:51:46.571Z,100073.59
2017-11-11T15:54:14.281Z,100070.66
2017-11-11T15:56:42.081Z,100066.97
2017-11-11T15:59:09.808Z,100063.63
2017-11-11T16:01:38.177Z,100064.89
2017-11-11T16:04:06.224Z,100064.05
2017-11-11T16:06:34.199Z,100069.70
2017-11-11T16:09:02.136Z,100075.63
2017-11-11T16:11:31.209Z,100066.34
2017-11-11T16:13:58.960Z,100072.21
2017-11-11T16:16:26.881Z,100065.38
2017-11-11T16:18:56.035Z,100065.64
2017-11-11T16:21:24.572Z,100067.37
2017-11-11T16:23:52.585Z,100066.86
2017-11-11T16:26:20.302Z,100060.70
2017-11-11T16:28:48.356Z,100061.25
2017-11-11T16:31:16.229Z,100061.66
2017-11-11T16:33:44.025Z,100072.06
2017-11-11T16:36:12.066Z,100077.33
2017-11-11T16:38:39.941Z,100077.77
2017-11-11T16:41:07.746Z,100078.95
2017-11-11T16:43:35.634Z,100078.38
2017-11-11T16:46:04.078Z,100083.95
2017-11-11T16:48:32.106Z,100087.21
2017-11-11T16:51:00.206Z,100082.62
2017-11-11T16:53:28.025Z,100089.09
2017-11-11T16:55:55.793Z,100088.84
2017-11-11T16:58:23.662Z,100082.09
2017-11-11T17:00:51.439Z,100082.62
2017-11-11T17:03:20.274Z,100078.35
2017-11-11T17:05:48.931Z,100082.13
2017-11-11T17:08:18.036Z,100087.31
2017-11-11T17:10:46.995Z,100087.47
2017-11-11T17:13:15.010Z,100078.25
2017-11-11T17:15:42.815Z,100086.38
2017-11-11T17:18:10.673Z,100082.69
2017-11-11T17:20:38.422Z,100079.84
2017-11-11T17:23:06.471Z,100075.66
2017-11-11T17:25:34.337Z,100071.16
2017-11-11T17:28:02.050Z,100077.14
2017-11-11T17:30:29.805Z,100079.77
2017-11-11T17:33:00.113Z,100073.22
2017-11-11T17:35:28.062Z,100072.41
2017-11-11T17:37:56.631Z,100074.09
2017-11-11T17:40:24.400Z,100078.47
2017-11-11T17:42:52.668Z,100084.36
2017-11-11T17:45:20.646Z,100081.45
2017-11-11T17:47:48.561Z,100086.52
2017-11-11T17:50:16.410Z,100085.09
2017-11-11T17:52:44.248Z,100087.25
2017-11-11T17:55:12.523Z,100095.20
2017-11-11T17:57:42.060Z,100090.86
2017-11-11T18:00:10.332Z,100087.41
2017-11-11T18:02:38.466Z,100100.49
2017-11-11T18:05:09.238Z,100098.92
2017-11-11T18:07:37.382Z,100105.76
2017-11-11T18:10:05.558Z,100107.09
2017-11-11T18:12:33.305Z,100108.80
2017-11-11T18:15:01.419Z,100107.39
2017-11-11T18:17:29.716Z,100112.19
2017-11-11T18:19:58.154Z,100113.95
2017-11-11T18:22:26.245Z,100108.97
2017-11-11T18:24:55.249Z,100106.21
2017-11-11T18:27:24.043Z,100109.55
2017-11-11T18:29:52.634Z,100110.92
2017-11-11T18:32:22.573Z,100113.30
2017-11-11T18:34:50.811Z,100125.41
2017-11-11T18:37:19.098Z,100121.83
2017-11-11T18:39:48.187Z,100120.65
2017-11-11T18:42:16.096Z,100131.25
2017-11-11T18:44:44.027Z,100133.75
2017-11-11T18:47:11.873Z,100136.27
2017-11-11T18:49:39.946Z,100138.08
2017-11-11T18:52:08.888Z,100130.17
2017-11-11T18:54:36.681Z,100135.68
2017-11-11T18:57:04.486Z,100131.46
2017-11-11T18:59:33.157Z,100140.19
2017-11-11T19:02:01.183Z,100137.73
2017-11-11T19:04:29.448Z,100133.92
2017-11-11T19:06:57.293Z,100142.37
2017-11-11T19:09:25.319Z,100150.88
2017-11-11T19:11:54.226Z,100148.43
2017-11-11T19:14:22.043Z,100149.80
2017-11-11T19:16:50.341Z,100140.58
2017-11-11T19:19:18.083Z,100148.38
2017-11-11T19:21:46.192Z,100155.13
2017-11-11T19:24:14.046Z,100158.59
2017-11-11T19:26:41.761Z,100154.34
2017-11-11T19:29:09.747Z,100155.61
2017-11-11T19:31:38.018Z,100157.28
2017-11-11T19:34:06.205Z,100157.45
2017-11-11T19:36:34.220Z,100152.08
2017-11-11T19:39:02.378Z,100153.89
2017-11-11T19:41:30.631Z,100159.94
2017-11-11T19:43:58.705Z,100151.42
2017-11-11T19:46:26.584Z,100157.64
2017-11-11T19:48:55.721Z,100157.98
2017-11-11T19:51:23.617Z,100157.42
2017-11-11T19:53:51.551Z,100163.50
2017-11-11T19:56:19.725Z,100162.03
2017-11-11T19:58:49.072Z,100160.12
2017-11-11T20:01:17.116Z,100164.68
2017-11-11T20:03:45.718Z,100158.78
2017-11-11T20:06:13.852Z,100167.11
2017-11-11T20:08:41.761Z,100161.48
2017-11-11T20:11:09.546Z,100167.98
2017-11-11T20:13:37.576Z,100165.82
2017-11-11T20:16:05.576Z,100169.95
2017-11-11T20:18:33.423Z,100162.92
2017-11-11T20:21:01.114Z,100172.98
2017-11-11T20:23:29.338Z,100175.92
2017-11-11T20:25:57.328Z,100171.64
2017-11-11T20:28:25.161Z,100181.59
2017-11-11T20:30:52.833Z,100187.23
2017-11-11T20:33:20.762Z,100184.68
2017-11-11T20:35:48.541Z,100187.45
2017-11-11T20:38:16.480Z,100187.73
2017-11-11T20:40:44.551Z,100192.57
2017-11-11T20:43:12.478Z,100199.14
2017-11-11T20:45:40.221Z,100201.77
2017-11-11T20:48:08.047Z,100206.03
2017-11-11T20:50:35.917Z,100202.33
2017-11-11T20:53:03.991Z,100198.22
2017-11-11T20:55:31.720Z,100204.84
2017-11-11T20:57:59.797Z,100211.42
2017-11-11T21:00:27.658Z,100207.00
2017-11-11T21:02:57.216Z,100204.55
2017-11-11T21:05:25.935Z,100206.48
2017-11-11T21:07:53.669Z,100218.61
2017-11-11T21:10:22.562Z,100227.13
2017-11-11T21:12:51.120Z,100223.17
2017-11-11T21:15:19.261Z,100232.94
2017-11-11T21:17:47.246Z,100231.99
2017-11-11T21:20:15.005Z,100241.75
2017-11-11T21:22:42.966Z,100238.15
2017-11-11T21:25:10.773Z,100242.85
2017-11-11T21:27:38.871Z,100246.68
2017-11-11T21:30:07.692Z,100238.84
2017-11-11T21:32:35.915Z,100239.38
2017-11-11T21:35:04.092Z,100242.52
2017-11-11T21:37:33.574Z,100242.65
2017-11-11T21:40:01.681Z,100234.95
2017-11-11T21:42:30.758Z,100236.31
2017-11-11T21:45:00.021Z,100241.03
2017-11-11T21:47:28.533Z,100242.54
2017-11-11T21:49:56.349Z,100242.66
2017-11-11T21:52:25.151Z,100240.86
2017-11-11T21:54:54.057Z,100246.36
2017-11-11T21:57:22.462Z,100245.70
2017-11-11T21:59:50.441Z,100248.44
2017-11-11T22:02:18.581Z,100248.56
2017-11-11T22:04:46.280Z,100245.95
2017-11-11T22:07:14.912Z,100244.46
2017-11-11T22:09:43.515Z,100243.38
2017-11-11T22:12:11.596Z,100250.67
2017-11-11T22:14:39.411Z,100247.23
2017-11-11T22:17:07.164Z,100251.38
2017-11-11T22:19:34.909Z,100252.91
2017-11-11T22:22:02.903Z,100245.22
2017-11-11T22:24:31.381Z,100251.68
2017-11-11T22:26:59.406Z,100250.02
2017-11-11T22:29:28.308Z,100252.23
2017-11-11T22:31:56.345Z,100253.48
2017-11-11T22:34:24.257Z,100247.56
2017-11-11T22:36:52.029Z,100249.90
2017-11-11T22:39:20.400Z,100246.89
2017-11-11T22:41:48.168Z,100248.41
2017-11-11T22:44:15.898Z,100243.59
2017-11-11T22:46:44.759Z,100240.84
2017-11-11T22:49:12.991Z,100243.88
2017-11-11T22:51:40.839Z,100252.67
2017-11-11T22:54:08.819Z,100249.25
2017-11-11T22:56:37.100Z,100247.59
2017-11-11T22:59:04.972Z,100250.77
2017-11-11T23:01:33.009Z,100245.14
2017-11-11T23:04:00.918Z,100248.02
2017-11-11T23:06:28.910Z,100245.55
2017-11-11T23:08:57.228Z,100244.02
2017-11-11T23:11:25.090Z,100244.61
2017-11-11T23:13:53.699Z,100245.57
2017-11-11T23:16:21.505Z,100240.62
2017-11-11T23:18:49.486Z,100253.11
2017-11-11T23:21:17.902Z,100247.48
2017-11-11T23:23:46.538Z,100241.16
2017-11-11T23:26:15.392Z,100242.67
2017-11-11T23:28:43.435Z,100242.83
2017-11-11T23:31:11.441Z,100245.83
2017-11-11T23:33:39.217Z,100243.78
2017-11-11T23:36:07.272Z,100241.88
2017-11-11T23:38:35.141Z,100233.75
2017-11-11T23:41:03.064Z,100236.92
2017-11-11T23:43:30.778Z,100239.96
2017-11-11T23:45:59.377Z,100245.84
2017-11-11T23:48:27.177Z,100235.42
2017-11-11T23:50:55.007Z,100237.22
2017-11-11T23:53:23.703Z,100234.84
2017-11-11T23:55:51.857Z,100235.55
2017-11-11T23:58:19.877Z,100228.67
